Time;durP1;ratioP1;P1;durP2;ratioP2;P2;SDS_P1;SDS_P2;PMS_P1;PMS_P2;Temp;Humidity;BMP_temperature;BMP_pressure;BME280_temperature;BME280_humidity;BME280_pressure;Samples;Min_cycle;Max_cycle;Signal;HPM_P1;HPM_P2
2022/11/04 00:01:41;;;;;;;9.95;4.55;;;;;;;;;;4885221;29;20047;-86
2022/11/04 00:04:06;;;;;;;7.88;3.78;;;;;;;;;;4956638;28;20548;-85
2022/11/04 00:06:32;;;;;;;9.07;4.60;;;;;;;;;;4969018;28;20045;-84
2022/11/04 00:08:58;;;;;;;7.28;4.13;;;;;;;;;;4989738;28;20553;-84
2022/11/04 00:14:09;;;;;;;7.00;3.90;;;;;;;;;;4981259;28;20131;-85
2022/11/04 00:19:19;;;;;;;10.48;4.55;;;;;;;;;;4999939;28;20543;-85
2022/11/04 00:29:58;;;;;;;10.65;4.30;;;;;;;;;;4971242;28;20069;-85
2022/11/04 00:35:11;;;;;;;10.55;4.95;;;;;;;;;;4984548;28;20416;-85
2022/11/04 00:37:39;;;;;;;7.97;4.57;;;;;;;;;;4976785;28;20085;-85
2022/11/04 00:40:06;;;;;;;12.32;4.85;;;;;;;;;;4976723;28;20041;-85
2022/11/04 00:42:32;;;;;;;10.45;4.55;;;;;;;;;;4971372;28;20439;-85
2022/11/04 00:44:57;;;;;;;9.75;4.32;;;;;;;;;;4986433;28;20041;-85
2022/11/04 00:47:23;;;;;;;8.48;4.68;;;;;;;;;;4953786;28;20620;-85
2022/11/04 00:49:48;;;;;;;11.23;5.05;;;;;;;;;;4972276;28;20050;-85
2022/11/04 00:52:14;;;;;;;13.63;5.13;;;;;;;;;;4994066;28;20046;-85
2022/11/04 00:54:42;;;;;;;9.00;4.93;;;;;;;;;;4991999;28;20037;-85
2022/11/04 00:57:11;;;;;;;9.43;4.63;;;;;;;;;;4979092;28;20451;-84
2022/11/04 00:59:37;;;;;;;10.30;5.28;;;;;;;;;;4982268;28;20031;-85
2022/11/04 01:02:02;;;;;;;9.98;5.55;;;;;;;;;;4982768;28;20508;-85
2022/11/04 01:04:28;;;;;;;10.45;5.38;;;;;;;;;;4965953;28;20473;-85
2022/11/04 01:06:53;;;;;;;10.90;5.53;;;;;;;;;;4983559;28;20034;-85
2022/11/04 01:09:19;;;;;;;10.68;5.00;;;;;;;;;;4966592;28;20496;-85
2022/11/04 01:11:44;;;;;;;8.70;5.32;;;;;;;;;;4973648;28;20033;-85
2022/11/04 01:14:10;;;;;;;8.45;5.00;;;;;;;;;;4966703;28;20035;-85
2022/11/04 01:16:35;;;;;;;7.78;4.90;;;;;;;;;;4981307;28;20493;-84
2022/11/04 01:19:01;;;;;;;9.10;5.20;;;;;;;;;;4969285;28;20052;-85
2022/11/04 01:21:27;;;;;;;9.35;5.05;;;;;;;;;;4983747;28;20504;-85
2022/11/04 01:23:52;;;;;;;8.75;4.90;;;;;;;;;;4993952;28;20481;-85
2022/11/04 01:26:21;;;;;;;11.57;6.13;;;;;;;;;;4973775;28;20046;-85
2022/11/04 01:28:47;;;;;;;9.80;5.20;;;;;;;;;;4995537;28;20038;-85
2022/11/04 01:31:15;;;;;;;10.27;5.47;;;;;;;;;;4967144;28;20053;-85
2022/11/04 01:33:40;;;;;;;10.90;5.85;;;;;;;;;;4995888;28;20049;-85
2022/11/04 01:36:07;;;;;;;9.30;5.30;;;;;;;;;;4990735;28;20101;-84
2022/11/04 01:38:32;;;;;;;10.82;6.32;;;;;;;;;;4966117;28;20084;-85
2022/11/04 01:40:58;;;;;;;9.07;5.28;;;;;;;;;;4973809;28;20050;-85
2022/11/04 01:43:42;;;;;;;9.85;5.25;;;;;;;;;;4977727;28;20040;-85
2022/11/04 01:46:08;;;;;;;10.25;4.95;;;;;;;;;;4966606;28;20097;-85
2022/11/04 01:48:34;;;;;;;8.18;4.80;;;;;;;;;;4988876;28;20038;-85
2022/11/04 01:50:59;;;;;;;9.90;5.47;;;;;;;;;;4979033;28;20553;-86
2022/11/04 01:53:31;;;;;;;9.05;4.90;;;;;;;;;;4983535;28;20038;-85
2022/11/04 01:55:59;;;;;;;9.73;5.53;;;;;;;;;;4978980;28;20038;-85
2022/11/04 01:58:30;;;;;;;9.65;5.45;;;;;;;;;;4982864;28;20105;-85
2022/11/04 02:00:55;;;;;;;8.95;5.15;;;;;;;;;;4988331;28;20100;-85
2022/11/04 02:03:34;;;;;;;11.93;5.10;;;;;;;;;;4963286;28;20057;-85
2022/11/04 02:06:00;;;;;;;10.43;5.43;;;;;;;;;;4984637;28;20121;-85
2022/11/04 02:08:28;;;;;;;13.68;5.15;;;;;;;;;;4971584;28;20552;-85
2022/11/04 02:11:00;;;;;;;9.75;5.07;;;;;;;;;;4982926;28;20030;-85
2022/11/04 02:13:26;;;;;;;10.57;4.97;;;;;;;;;;4987247;28;20062;-85
2022/11/04 02:15:58;;;;;;;9.15;4.88;;;;;;;;;;4995498;28;20034;-84
2022/11/04 02:18:57;;;;;;;9.32;5.13;;;;;;;;;;4985030;28;20092;-85
2022/11/04 02:21:44;;;;;;;8.95;5.30;;;;;;;;;;4970924;28;20031;-85
2022/11/04 02:24:48;;;;;;;10.02;5.57;;;;;;;;;;4991492;28;20057;-85
2022/11/04 02:27:29;;;;;;;9.75;4.70;;;;;;;;;;4982462;28;20038;-85
2022/11/04 02:29:57;;;;;;;12.25;5.05;;;;;;;;;;4974127;28;20046;-85
2022/11/04 02:32:45;;;;;;;10.40;5.43;;;;;;;;;;4980197;28;20068;-85
2022/11/04 02:35:29;;;;;;;9.82;5.07;;;;;;;;;;4977975;28;20104;-84
2022/11/04 02:38:31;;;;;;;12.07;4.88;;;;;;;;;;4995621;28;20173;-84
2022/11/04 02:41:16;;;;;;;9.40;5.70;;;;;;;;;;4975282;28;20042;-85
2022/11/04 02:43:51;;;;;;;11.23;5.25;;;;;;;;;;4970123;28;20425;-85
2022/11/04 02:46:16;;;;;;;10.18;5.90;;;;;;;;;;4988129;28;20061;-85
2022/11/04 02:49:13;;;;;;;12.00;5.57;;;;;;;;;;4979203;28;20508;-85
2022/11/04 02:51:44;;;;;;;11.43;5.70;;;;;;;;;;4969519;28;20555;-86
2022/11/04 02:54:33;;;;;;;9.82;5.75;;;;;;;;;;4974435;28;20117;-85
2022/11/04 02:57:00;;;;;;;10.50;5.72;;;;;;;;;;4963566;28;20042;-85
2022/11/04 02:59:34;;;;;;;13.20;6.28;;;;;;;;;;4969661;28;20121;-85
2022/11/04 03:02:03;;;;;;;11.00;5.80;;;;;;;;;;4991549;28;20042;-84
2022/11/04 03:04:31;;;;;;;11.13;5.53;;;;;;;;;;4982432;28;20486;-85
2022/11/04 03:07:01;;;;;;;10.55;5.22;;;;;;;;;;4990566;28;20030;-85
2022/11/04 03:09:27;;;;;;;12.25;5.55;;;;;;;;;;4960424;28;20136;-85
2022/11/04 03:12:00;;;;;;;9.63;5.40;;;;;;;;;;4957057;28;20493;-85
2022/11/04 03:14:30;;;;;;;12.20;5.80;;;;;;;;;;4976455;28;20027;-85
2022/11/04 03:16:58;;;;;;;9.45;5.72;;;;;;;;;;4995418;28;20069;-85
2022/11/04 03:19:38;;;;;;;12.88;5.95;;;;;;;;;;4988339;28;20030;-84
2022/11/04 03:22:10;;;;;;;11.90;5.75;;;;;;;;;;4987290;28;20091;-85
2022/11/04 03:24:36;;;;;;;9.80;5.57;;;;;;;;;;4977337;28;20034;-86
2022/11/04 03:27:11;;;;;;;9.52;5.80;;;;;;;;;;4988763;28;20710;-86
2022/11/04 03:30:04;;;;;;;9.90;5.47;;;;;;;;;;4998042;28;20034;-86
2022/11/04 03:32:53;;;;;;;11.27;5.70;;;;;;;;;;4979290;28;20087;-86
2022/11/04 03:35:19;;;;;;;8.68;4.97;;;;;;;;;;4956593;28;20572;-86
2022/11/04 03:37:46;;;;;;;11.52;5.72;;;;;;;;;;4954394;28;20125;-86
2022/11/04 03:40:12;;;;;;;10.32;5.80;;;;;;;;;;4956703;28;20034;-86
2022/11/04 03:42:51;;;;;;;11.20;5.57;;;;;;;;;;4963216;28;20037;-86
2022/11/04 03:45:17;;;;;;;9.95;5.60;;;;;;;;;;4968396;28;20042;-85
2022/11/04 03:47:43;;;;;;;11.18;5.75;;;;;;;;;;4982730;28;20041;-85
2022/11/04 03:50:34;;;;;;;10.45;5.70;;;;;;;;;;4996650;28;20030;-85
2022/11/04 03:53:00;;;;;;;10.30;5.95;;;;;;;;;;4980123;28;20057;-86
2022/11/04 03:55:44;;;;;;;10.45;5.40;;;;;;;;;;4985358;28;20065;-86
2022/11/04 03:58:23;;;;;;;12.70;5.80;;;;;;;;;;4976658;28;20501;-85
2022/11/04 04:00:55;;;;;;;9.82;5.50;;;;;;;;;;4977246;28;20038;-85
2022/11/04 04:03:25;;;;;;;8.23;5.13;;;;;;;;;;4983728;28;20112;-85
2022/11/04 04:06:05;;;;;;;9.63;5.45;;;;;;;;;;4993152;28;20038;-84
2022/11/04 04:08:38;;;;;;;11.20;5.78;;;;;;;;;;4972461;28;20042;-85
2022/11/04 04:11:39;;;;;;;9.43;5.85;;;;;;;;;;4949322;28;20034;-85
2022/11/04 04:14:38;;;;;;;8.07;5.20;;;;;;;;;;4978634;28;20351;-85
2022/11/04 04:17:13;;;;;;;11.52;5.72;;;;;;;;;;4996841;28;20897;-84
2022/11/04 04:19:41;;;;;;;11.32;5.35;;;;;;;;;;4965275;28;20042;-85
2022/11/04 04:22:12;;;;;;;9.20;5.55;;;;;;;;;;4977690;28;20053;-85
2022/11/04 04:27:31;;;;;;;12.48;5.32;;;;;;;;;;4993284;28;20092;-85
2022/11/04 04:30:03;;;;;;;9.43;5.18;;;;;;;;;;4981957;28;20046;-85
2022/11/04 04:32:33;;;;;;;11.68;5.80;;;;;;;;;;4974090;28;20057;-86
2022/11/04 04:37:43;;;;;;;12.43;5.93;;;;;;;;;;4971430;28;20512;-86
2022/11/04 04:45:50;;;;;;;12.65;5.80;;;;;;;;;;4968253;28;20264;-85
2022/11/04 04:48:16;;;;;;;9.55;5.38;;;;;;;;;;4989643;28;20084;-85
2022/11/04 04:50:47;;;;;;;12.65;5.82;;;;;;;;;;4973906;28;20485;-85
2022/11/04 04:53:12;;;;;;;10.50;5.68;;;;;;;;;;4975034;28;20062;-85
2022/11/04 04:55:38;;;;;;;9.43;5.25;;;;;;;;;;4980062;28;20084;-85
2022/11/04 04:58:03;;;;;;;8.05;4.93;;;;;;;;;;4992206;28;20049;-85
2022/11/04 05:00:29;;;;;;;10.88;5.50;;;;;;;;;;4969350;28;20027;-84
2022/11/04 05:02:54;;;;;;;11.00;5.25;;;;;;;;;;4981403;28;20545;-85
2022/11/04 05:05:20;;;;;;;12.18;5.82;;;;;;;;;;4966395;28;20038;-85
2022/11/04 05:07:46;;;;;;;11.77;6.18;;;;;;;;;;4983915;28;20038;-85
2022/11/04 05:10:13;;;;;;;8.90;5.40;;;;;;;;;;4982643;28;20415;-85
2022/11/04 05:15:24;;;;;;;14.77;5.85;;;;;;;;;;4997149;28;20072;-85
2022/11/04 05:17:57;;;;;;;12.48;5.82;;;;;;;;;;4985335;28;20061;-84
2022/11/04 05:20:23;;;;;;;8.70;5.18;;;;;;;;;;4983484;28;20064;-85
2022/11/04 05:22:49;;;;;;;10.07;5.68;;;;;;;;;;4973000;28;20030;-85
2022/11/04 05:25:15;;;;;;;10.40;5.72;;;;;;;;;;4979886;28;20489;-86
2022/11/04 05:27:40;;;;;;;10.18;5.75;;;;;;;;;;4984365;28;20112;-85
2022/11/04 05:30:06;;;;;;;11.13;5.90;;;;;;;;;;4972578;28;20038;-85
2022/11/04 05:32:31;;;;;;;11.93;6.10;;;;;;;;;;4980167;28;20093;-86
2022/11/04 05:34:57;;;;;;;9.65;5.75;;;;;;;;;;4972328;28;20125;-85
2022/11/04 05:37:22;;;;;;;12.00;6.00;;;;;;;;;;4969470;28;20054;-85
2022/11/04 05:39:48;;;;;;;10.55;6.15;;;;;;;;;;4968365;28;20034;-84
2022/11/04 05:42:19;;;;;;;10.88;6.43;;;;;;;;;;4971236;28;20034;-85
2022/11/04 05:44:44;;;;;;;9.57;5.85;;;;;;;;;;4962798;28;20110;-85
2022/11/04 05:47:09;;;;;;;10.95;6.65;;;;;;;;;;4983453;28;20121;-84
2022/11/04 05:49:35;;;;;;;11.48;6.50;;;;;;;;;;4986235;28;20117;-84
2022/11/04 05:52:03;;;;;;;11.35;6.78;;;;;;;;;;4967354;28;20371;-85
2022/11/04 05:54:28;;;;;;;10.98;6.53;;;;;;;;;;4963798;28;20449;-85
2022/11/04 05:56:53;;;;;;;12.05;7.20;;;;;;;;;;4969895;28;20042;-84
2022/11/04 05:59:19;;;;;;;12.40;7.20;;;;;;;;;;4977481;28;20085;-84
2022/11/04 06:01:44;;;;;;;11.63;7.03;;;;;;;;;;4968959;28;20026;-84
2022/11/04 06:04:15;;;;;;;10.95;6.53;;;;;;;;;;4934273;28;1106133;-83
2022/11/04 06:06:41;;;;;;;12.20;6.53;;;;;;;;;;4957554;28;20050;-85
2022/11/04 06:09:06;;;;;;;12.15;6.95;;;;;;;;;;4967302;28;20044;-84
2022/11/04 06:11:33;;;;;;;10.25;6.80;;;;;;;;;;4973812;28;20073;-84
2022/11/04 06:13:58;;;;;;;12.77;6.75;;;;;;;;;;4968918;28;20121;-83
2022/11/04 06:16:24;;;;;;;15.13;7.13;;;;;;;;;;4962401;28;20137;-83
2022/11/04 06:18:50;;;;;;;13.43;7.70;;;;;;;;;;4962546;28;20066;-84
2022/11/04 06:21:20;;;;;;;13.93;7.80;;;;;;;;;;4960325;28;20050;-84
2022/11/04 06:23:45;;;;;;;13.80;7.60;;;;;;;;;;4974111;28;20569;-84
2022/11/04 06:26:11;;;;;;;22.35;11.73;;;;;;;;;;4967414;28;20035;-84
2022/11/04 06:28:37;;;;;;;14.85;8.05;;;;;;;;;;4991905;28;20549;-84
2022/11/04 06:31:05;;;;;;;12.93;8.10;;;;;;;;;;4982276;28;20270;-85
2022/11/04 06:33:30;;;;;;;13.18;8.10;;;;;;;;;;4964061;28;20065;-85
2022/11/04 06:35:59;;;;;;;14.20;7.75;;;;;;;;;;4961012;28;20034;-85
2022/11/04 06:38:25;;;;;;;12.93;8.38;;;;;;;;;;4977249;28;20035;-85
2022/11/04 06:40:51;;;;;;;15.60;8.18;;;;;;;;;;4962756;28;20040;-82
2022/11/04 06:43:16;;;;;;;14.90;8.70;;;;;;;;;;4968730;28;20616;-85
2022/11/04 06:45:41;;;;;;;17.02;9.13;;;;;;;;;;4962760;28;20034;-85
2022/11/04 06:48:07;;;;;;;15.75;9.07;;;;;;;;;;4971491;28;20190;-83
2022/11/04 06:50:32;;;;;;;15.52;8.75;;;;;;;;;;4983225;28;20039;-84
2022/11/04 06:52:58;;;;;;;15.40;9.50;;;;;;;;;;4982679;28;20058;-84
2022/11/04 06:55:23;;;;;;;15.90;8.45;;;;;;;;;;4983381;28;20034;-85
2022/11/04 06:57:49;;;;;;;17.13;10.40;;;;;;;;;;4981896;28;20097;-85
2022/11/04 07:00:15;;;;;;;15.30;9.43;;;;;;;;;;4984682;28;20030;-83
2022/11/04 07:02:40;;;;;;;19.17;10.63;;;;;;;;;;4967851;28;20133;-84
2022/11/04 07:05:06;;;;;;;16.92;9.85;;;;;;;;;;4958701;28;20038;-84
2022/11/04 07:07:31;;;;;;;14.70;9.55;;;;;;;;;;4967194;28;20655;-84
2022/11/04 07:09:57;;;;;;;19.67;10.40;;;;;;;;;;4982757;28;20800;-84
2022/11/04 07:12:23;;;;;;;19.27;10.00;;;;;;;;;;4974406;28;20037;-84
2022/11/04 07:14:49;;;;;;;17.85;10.02;;;;;;;;;;4964653;28;20042;-84
2022/11/04 07:17:14;;;;;;;16.25;10.35;;;;;;;;;;4974322;28;20499;-82
2022/11/04 07:19:39;;;;;;;19.95;11.45;;;;;;;;;;4968668;28;20749;-84
2022/11/04 07:22:05;;;;;;;17.98;10.50;;;;;;;;;;4974539;28;20481;-81
2022/11/04 07:24:30;;;;;;;16.48;9.70;;;;;;;;;;4964615;28;20082;-82
2022/11/04 07:26:55;;;;;;;20.08;10.60;;;;;;;;;;4979204;28;20064;-83
2022/11/04 07:29:21;;;;;;;17.20;9.73;;;;;;;;;;4977384;28;20178;-81
2022/11/04 07:31:49;;;;;;;18.65;10.90;;;;;;;;;;4966347;28;20045;-81
2022/11/04 07:34:14;;;;;;;17.50;11.10;;;;;;;;;;4960712;28;20069;-82
2022/11/04 07:36:39;;;;;;;18.55;10.77;;;;;;;;;;4961298;28;20054;-82
2022/11/04 07:39:05;;;;;;;18.10;10.45;;;;;;;;;;4971214;28;20497;-82
2022/11/04 07:41:31;;;;;;;17.58;10.82;;;;;;;;;;4972893;28;20566;-82
2022/11/04 07:43:57;;;;;;;17.98;10.30;;;;;;;;;;4965018;28;20042;-83
2022/11/04 07:46:23;;;;;;;16.20;9.57;;;;;;;;;;4973443;28;20049;-83
2022/11/04 07:48:48;;;;;;;17.00;10.20;;;;;;;;;;4961042;28;20034;-81
2022/11/04 07:51:16;;;;;;;16.40;9.80;;;;;;;;;;4965755;28;20050;-82
2022/11/04 07:53:41;;;;;;;;;;;;;;;;;;4993077;28;20034;-83
2022/11/04 07:56:12;;;;;;;18.73;9.82;;;;;;;;;;4971815;28;19933;-82
2022/11/04 07:58:37;;;;;;;17.80;10.10;;;;;;;;;;4968036;28;20044;-82
2022/11/04 08:01:09;;;;;;;17.65;10.70;;;;;;;;;;4960599;28;20035;-82
2022/11/04 08:03:35;;;;;;;15.90;9.93;;;;;;;;;;4971677;28;20044;-83
2022/11/04 08:06:03;;;;;;;16.88;9.60;;;;;;;;;;4965601;28;20149;-84
2022/11/04 08:08:29;;;;;;;18.13;10.75;;;;;;;;;;4989382;28;20035;-83
2022/11/04 08:11:00;;;;;;;15.98;9.25;;;;;;;;;;4932773;28;20519;-84
2022/11/04 08:13:30;;;;;;;17.30;9.75;;;;;;;;;;4950658;28;20038;-83
2022/11/04 08:16:03;;;;;;;15.68;10.18;;;;;;;;;;4987490;28;20038;-84
2022/11/04 08:18:52;;;;;;;14.63;9.05;;;;;;;;;;4958222;28;20088;-83
2022/11/04 08:21:21;;;;;;;16.45;9.27;;;;;;;;;;4968614;28;20132;-84
2022/11/04 08:23:47;;;;;;;16.67;9.82;;;;;;;;;;4960730;28;20038;-82
2022/11/04 08:26:16;;;;;;;18.23;9.48;;;;;;;;;;4967693;28;20041;-83
2022/11/04 08:28:42;;;;;;;17.80;9.77;;;;;;;;;;4987910;28;20041;-83
2022/11/04 08:31:11;;;;;;;16.10;9.75;;;;;;;;;;4974318;28;20080;-83
2022/11/04 08:33:37;;;;;;;16.38;9.77;;;;;;;;;;4978726;28;20501;-83
2022/11/04 08:36:27;;;;;;;17.30;9.88;;;;;;;;;;4962919;28;20042;-83
2022/11/04 08:38:53;;;;;;;17.50;9.77;;;;;;;;;;4893665;29;20189;-82
2022/11/04 08:41:21;;;;;;;15.05;9.05;;;;;;;;;;4911102;29;20043;-83
2022/11/04 08:43:47;;;;;;;15.25;7.80;;;;;;;;;;4908972;29;20043;-82
2022/11/04 08:46:13;;;;;;;15.23;8.60;;;;;;;;;;4883798;29;20101;-83
2022/11/04 08:48:39;;;;;;;12.30;8.40;;;;;;;;;;4876750;29;20490;-82
2022/11/04 08:51:10;;;;;;;13.57;8.15;;;;;;;;;;4882276;29;20040;-83
2022/11/04 08:53:35;;;;;;;14.32;7.35;;;;;;;;;;4894111;29;20040;-82
2022/11/04 08:56:09;;;;;;;15.07;7.35;;;;;;;;;;4879654;29;20068;-83
2022/11/04 08:58:34;;;;;;;11.65;7.13;;;;;;;;;;4881979;29;20119;-82
2022/11/04 09:01:03;;;;;;;13.65;7.65;;;;;;;;;;4892592;29;20127;-82
2022/11/04 09:03:28;;;;;;;10.45;6.75;;;;;;;;;;4910076;29;20079;-82
2022/11/04 09:05:56;;;;;;;13.10;6.75;;;;;;;;;;4878405;29;20107;-82
2022/11/04 09:08:21;;;;;;;13.98;7.00;;;;;;;;;;4895276;29;20032;-83
2022/11/04 09:10:47;;;;;;;10.57;6.13;;;;;;;;;;4892758;29;20039;-82
2022/11/04 09:13:14;;;;;;;13.65;6.68;;;;;;;;;;4898255;29;20036;-81
2022/11/04 09:15:39;;;;;;;11.80;6.43;;;;;;;;;;4909346;28;20038;-82
2022/11/04 09:18:05;;;;;;;14.38;5.43;;;;;;;;;;4977654;28;20042;-82
2022/11/04 09:20:30;;;;;;;12.23;6.38;;;;;;;;;;4963884;28;20397;-82
2022/11/04 09:22:56;;;;;;;9.65;6.00;;;;;;;;;;4954748;28;20035;-82
2022/11/04 09:25:21;;;;;;;11.15;5.82;;;;;;;;;;4966810;28;20042;-81
2022/11/04 09:27:47;;;;;;;9.32;5.35;;;;;;;;;;4979602;28;20033;-82
2022/11/04 09:30:12;;;;;;;10.80;5.90;;;;;;;;;;4964063;28;20039;-82
2022/11/04 09:32:38;;;;;;;10.77;6.20;;;;;;;;;;4969613;28;20482;-81
2022/11/04 09:35:04;;;;;;;8.98;5.95;;;;;;;;;;4966306;28;20037;-83
2022/11/04 09:37:29;;;;;;;11.70;6.65;;;;;;;;;;4964654;28;20045;-83
2022/11/04 09:39:54;;;;;;;10.98;6.32;;;;;;;;;;4967673;28;20077;-82
2022/11/04 09:42:32;;;;;;;11.10;6.70;;;;;;;;;;4975784;28;20041;-83
2022/11/04 09:45:02;;;;;;;12.57;6.50;;;;;;;;;;4974447;28;20130;-82
2022/11/04 09:47:29;;;;;;;12.05;6.63;;;;;;;;;;4966464;28;20061;-82
2022/11/04 09:49:57;;;;;;;11.38;6.32;;;;;;;;;;4962848;28;20366;-82
2022/11/04 09:52:25;;;;;;;;;;;;;;;;;;4990818;28;20026;-83
2022/11/04 09:54:59;;;;;;;10.00;5.78;;;;;;;;;;4971733;28;20292;-82
2022/11/04 09:57:25;;;;;;;12.00;6.97;;;;;;;;;;4976603;28;20070;-82
2022/11/04 09:59:50;;;;;;;10.80;6.53;;;;;;;;;;4965085;28;20560;-82
2022/11/04 10:02:24;;;;;;;9.70;6.13;;;;;;;;;;4979477;28;20034;-83
2022/11/04 10:04:56;;;;;;;11.35;6.13;;;;;;;;;;4960817;28;20383;-83
2022/11/04 10:07:39;;;;;;;9.35;5.80;;;;;;;;;;4977050;28;20624;-83
2022/11/04 10:10:23;;;;;;;9.70;5.88;;;;;;;;;;4978041;28;20030;-81
2022/11/04 10:12:55;;;;;;;10.85;6.40;;;;;;;;;;4975363;28;20042;-82
2022/11/04 10:15:40;;;;;;;9.23;5.78;;;;;;;;;;4989640;28;20039;-83
2022/11/04 10:18:25;;;;;;;11.23;6.43;;;;;;;;;;4976510;28;20581;-82
2022/11/04 10:21:28;;;;;;;10.77;6.78;;;;;;;;;;4956351;28;20039;-82
2022/11/04 10:24:19;;;;;;;9.35;6.15;;;;;;;;;;4967119;28;20045;-82
2022/11/04 10:26:46;;;;;;;9.77;6.22;;;;;;;;;;4948920;28;20374;-82
2022/11/04 10:29:15;;;;;;;9.95;6.53;;;;;;;;;;4958553;28;20671;-82
2022/11/04 10:31:42;;;;;;;10.40;5.80;;;;;;;;;;4954156;28;20482;-81
2022/11/04 10:34:17;;;;;;;9.23;5.63;;;;;;;;;;4957738;28;20039;-83
2022/11/04 10:36:46;;;;;;;9.40;5.80;;;;;;;;;;4966609;28;20124;-82
2022/11/04 10:39:23;;;;;;;9.32;5.60;;;;;;;;;;4967535;28;20561;-82
2022/11/04 10:41:49;;;;;;;;;;;;;;;;;;4974567;28;20039;-81
2022/11/04 10:44:26;;;;;;;9.70;5.28;;;;;;;;;;4974347;28;20337;-82
2022/11/04 10:47:03;;;;;;;;;;;;;;;;;;4994014;28;20056;-82
2022/11/04 10:50:00;;;;;;;9.18;5.57;;;;;;;;;;4976806;28;20013;-82
2022/11/04 10:52:25;;;;;;;8.90;6.00;;;;;;;;;;4975305;28;20042;-82
2022/11/04 10:54:50;;;;;;;9.38;5.47;;;;;;;;;;4958421;28;20042;-82
2022/11/04 10:57:21;;;;;;;10.90;6.13;;;;;;;;;;4982697;28;20035;-83
2022/11/04 10:59:52;;;;;;;9.15;5.82;;;;;;;;;;4965948;28;20038;-83
2022/11/04 11:02:19;;;;;;;10.00;5.90;;;;;;;;;;4974635;28;20069;-82
2022/11/04 11:04:46;;;;;;;11.57;6.00;;;;;;;;;;4970519;28;20039;-82
2022/11/04 11:07:18;;;;;;;8.32;5.85;;;;;;;;;;4958357;28;20030;-82
2022/11/04 11:09:51;;;;;;;9.15;5.70;;;;;;;;;;4966524;28;20038;-83
2022/11/04 11:12:22;;;;;;;9.85;6.00;;;;;;;;;;4981361;28;20046;-82
2022/11/04 11:14:48;;;;;;;11.68;5.93;;;;;;;;;;4960698;28;20052;-83
2022/11/04 11:17:13;;;;;;;10.02;5.82;;;;;;;;;;4985421;28;20509;-83
2022/11/04 11:19:49;;;;;;;10.88;5.95;;;;;;;;;;4971856;28;20030;-82
2022/11/04 11:22:39;;;;;;;11.43;6.10;;;;;;;;;;4974776;28;20394;-83
2022/11/04 11:25:23;;;;;;;9.60;6.03;;;;;;;;;;4969997;28;20037;-83
2022/11/04 11:27:57;;;;;;;11.60;6.05;;;;;;;;;;4975558;28;20064;-82
2022/11/04 11:30:42;;;;;;;9.20;6.38;;;;;;;;;;4972027;28;20031;-83
2022/11/04 11:33:18;;;;;;;9.30;6.32;;;;;;;;;;4973883;28;20066;-84
2022/11/04 11:35:52;;;;;;;10.57;5.95;;;;;;;;;;4967589;28;20125;-83
2022/11/04 11:38:23;;;;;;;12.27;7.22;;;;;;;;;;4954770;28;20069;-82
2022/11/04 11:40:51;;;;;;;10.73;6.85;;;;;;;;;;4981772;28;20493;-82
2022/11/04 11:43:27;;;;;;;11.30;6.68;;;;;;;;;;4965617;28;20553;-82
2022/11/04 11:45:53;;;;;;;12.05;7.13;;;;;;;;;;4972600;28;20026;-83
2022/11/04 11:48:42;;;;;;;11.95;7.15;;;;;;;;;;4966549;28;20030;-81
2022/11/04 11:51:12;;;;;;;14.00;7.22;;;;;;;;;;4969438;28;20406;-82
2022/11/04 11:53:44;;;;;;;11.25;7.07;;;;;;;;;;4959557;28;20030;-82
2022/11/04 11:56:37;;;;;;;11.10;7.15;;;;;;;;;;4972418;28;20043;-83
2022/11/04 11:59:31;;;;;;;11.48;7.18;;;;;;;;;;4964032;28;20137;-83
2022/11/04 12:02:15;;;;;;;11.63;7.20;;;;;;;;;;4968831;28;20043;-83
2022/11/04 12:04:41;;;;;;;11.05;7.20;;;;;;;;;;4969437;28;20054;-82
2022/11/04 12:07:27;;;;;;;11.50;7.38;;;;;;;;;;4947836;28;20920;-82
2022/11/04 12:10:11;;;;;;;10.85;6.90;;;;;;;;;;4973616;28;20042;-81
2022/11/04 12:12:59;;;;;;;12.27;7.63;;;;;;;;;;4965367;28;20030;-83
2022/11/04 12:15:34;;;;;;;13.10;7.53;;;;;;;;;;4950502;28;20035;-83
2022/11/04 12:18:10;;;;;;;11.10;7.20;;;;;;;;;;4969261;28;20043;-83
2022/11/04 12:20:47;;;;;;;12.07;7.97;;;;;;;;;;4955340;28;20109;-83
2022/11/04 12:23:27;;;;;;;13.07;7.72;;;;;;;;;;4946407;28;20042;-84
2022/11/04 12:25:59;;;;;;;12.70;7.15;;;;;;;;;;4937613;28;20065;-84
2022/11/04 12:28:33;;;;;;;11.85;7.30;;;;;;;;;;4982373;28;20133;-84
2022/11/04 12:31:09;;;;;;;12.43;7.60;;;;;;;;;;4973684;28;20506;-84
2022/11/04 12:34:05;;;;;;;10.80;7.47;;;;;;;;;;4990332;28;20494;-84
2022/11/04 12:36:30;;;;;;;12.93;7.43;;;;;;;;;;4975908;28;20089;-83
2022/11/04 12:39:10;;;;;;;13.23;7.55;;;;;;;;;;4968550;28;20034;-83
2022/11/04 12:42:13;;;;;;;11.38;6.82;;;;;;;;;;4993980;28;20082;-83
2022/11/04 12:44:48;;;;;;;11.45;7.20;;;;;;;;;;4961227;28;20639;-83
2022/11/04 12:47:29;;;;;;;11.63;7.53;;;;;;;;;;4964955;28;20114;-83
2022/11/04 12:50:03;;;;;;;26.45;8.95;;;;;;;;;;4942572;28;20071;-83
2022/11/04 12:52:40;;;;;;;12.80;7.50;;;;;;;;;;4976422;28;20493;-83
2022/11/04 12:55:39;;;;;;;11.98;7.53;;;;;;;;;;4978143;28;20064;-82
2022/11/04 12:58:40;;;;;;;11.00;7.60;;;;;;;;;;4976092;28;20046;-82
2022/11/04 13:01:12;;;;;;;10.20;7.00;;;;;;;;;;4975494;28;20044;-82
2022/11/04 13:04:09;;;;;;;9.70;6.68;;;;;;;;;;4961423;28;20375;-83
2022/11/04 13:07:10;;;;;;;11.52;7.75;;;;;;;;;;4975500;28;20541;-82
2022/11/04 13:09:48;;;;;;;12.18;6.90;;;;;;;;;;4957745;28;20042;-82
2022/11/04 13:12:19;;;;;;;10.13;7.00;;;;;;;;;;4964883;28;20041;-82
2022/11/04 13:15:10;;;;;;;12.40;7.18;;;;;;;;;;4957205;28;20407;-82
2022/11/04 13:17:40;;;;;;;10.27;6.93;;;;;;;;;;4952872;28;20509;-83
2022/11/04 13:20:25;;;;;;;10.45;7.20;;;;;;;;;;4954668;28;20042;-83
2022/11/04 13:22:52;;;;;;;10.32;6.63;;;;;;;;;;4939792;28;20074;-82
2022/11/04 13:25:30;;;;;;;10.52;6.70;;;;;;;;;;4930018;28;20820;-83
2022/11/04 13:27:56;;;;;;;11.30;7.45;;;;;;;;;;4950931;28;20121;-83
2022/11/04 13:30:36;;;;;;;13.35;7.57;;;;;;;;;;4940465;28;20153;-83
2022/11/04 13:33:17;;;;;;;10.40;6.32;;;;;;;;;;4950561;28;20043;-82
2022/11/04 13:36:13;;;;;;;9.60;6.95;;;;;;;;;;4933151;28;20043;-83
2022/11/04 13:38:52;;;;;;;10.93;6.80;;;;;;;;;;4932801;28;20039;-84
2022/11/04 13:41:41;;;;;;;11.60;7.30;;;;;;;;;;4946361;28;20046;-83
2022/11/04 13:44:21;;;;;;;11.00;7.22;;;;;;;;;;4951744;28;20043;-83
2022/11/04 13:46:51;;;;;;;12.13;6.90;;;;;;;;;;4946226;28;20047;-83
2022/11/04 13:49:29;;;;;;;11.35;7.10;;;;;;;;;;4951052;28;20386;-83
2022/11/04 13:52:05;;;;;;;;;;;;;;;;;;4950985;28;20046;-83
2022/11/04 13:54:38;;;;;;;11.68;7.32;;;;;;;;;;4946451;28;20411;-83
2022/11/04 13:57:04;;;;;;;10.43;6.70;;;;;;;;;;4968052;28;20473;-84
2022/11/04 13:59:30;;;;;;;10.63;7.28;;;;;;;;;;4962120;28;20035;-83
2022/11/04 14:02:11;;;;;;;11.40;7.05;;;;;;;;;;4984346;28;20061;-83
2022/11/04 14:04:40;;;;;;;10.55;7.25;;;;;;;;;;4990577;28;20039;-82
2022/11/04 14:07:09;;;;;;;10.80;6.97;;;;;;;;;;4965974;28;20046;-83
2022/11/04 14:09:40;;;;;;;11.02;7.07;;;;;;;;;;4974908;28;20133;-83
2022/11/04 14:12:17;;;;;;;10.18;6.95;;;;;;;;;;4974299;28;20034;-83
2022/11/04 14:15:09;;;;;;;10.90;6.97;;;;;;;;;;4974744;28;20053;-83
2022/11/04 14:17:34;;;;;;;10.45;7.15;;;;;;;;;;4940777;29;20466;-83
2022/11/04 14:20:21;;;;;;;9.88;6.78;;;;;;;;;;4945106;28;20045;-83
2022/11/04 14:22:53;;;;;;;12.50;7.20;;;;;;;;;;4910991;29;20505;-83
2022/11/04 14:25:26;;;;;;;9.68;6.50;;;;;;;;;;4929372;29;20406;-83
2022/11/04 14:27:54;;;;;;;9.55;6.10;;;;;;;;;;4945827;29;20066;-83
2022/11/04 14:30:43;;;;;;;10.82;6.72;;;;;;;;;;4928798;29;20078;-83
2022/11/04 14:34:00;;;;;;;11.75;6.90;;;;;;;;;;4929967;29;20054;-83
2022/11/04 14:36:31;;;;;;;13.63;7.03;;;;;;;;;;4903562;29;20457;-82
2022/11/04 14:39:19;;;;;;;12.27;7.05;;;;;;;;;;4945032;28;20399;-83
2022/11/04 14:42:09;;;;;;;9.73;6.78;;;;;;;;;;4928795;29;20366;-82
2022/11/04 14:44:41;;;;;;;11.57;6.95;;;;;;;;;;4928507;29;20039;-83
2022/11/04 14:47:18;;;;;;;10.00;6.68;;;;;;;;;;4944065;29;20589;-81
2022/11/04 14:49:49;;;;;;;11.68;7.15;;;;;;;;;;4946056;29;20043;-83
2022/11/04 14:52:22;;;;;;;9.60;6.38;;;;;;;;;;4928757;29;20038;-82
2022/11/04 14:54:48;;;;;;;11.90;7.40;;;;;;;;;;4961598;28;20039;-82
2022/11/04 14:57:24;;;;;;;10.75;7.03;;;;;;;;;;4958917;28;20046;-82
2022/11/04 14:59:51;;;;;;;11.70;7.50;;;;;;;;;;4958860;28;20442;-81
2022/11/04 15:02:22;;;;;;;10.05;7.10;;;;;;;;;;4975562;28;20114;-81
2022/11/04 15:04:55;;;;;;;12.25;7.13;;;;;;;;;;4974424;28;20049;-82
2022/11/04 15:07:31;;;;;;;10.95;7.25;;;;;;;;;;4975081;28;20497;-81
2022/11/04 15:09:57;;;;;;;10.98;7.63;;;;;;;;;;4991601;28;20490;-82
2022/11/04 15:15:38;;;;;;;11.95;6.90;;;;;;;;;;4955311;28;20054;-82
2022/11/04 15:18:12;;;;;;;9.95;6.65;;;;;;;;;;4963575;28;20039;-82
2022/11/04 15:20:59;;;;;;;12.45;7.32;;;;;;;;;;4967071;28;20058;-82
2022/11/04 15:23:27;;;;;;;11.50;7.10;;;;;;;;;;4956518;28;20038;-82
2022/11/04 15:25:53;;;;;;;11.32;7.00;;;;;;;;;;4955637;28;20132;-82
2022/11/04 15:28:25;;;;;;;11.65;7.68;;;;;;;;;;4971582;28;20054;-82
2022/11/04 15:31:16;;;;;;;13.35;7.43;;;;;;;;;;4965662;28;20030;-82
2022/11/04 15:33:44;;;;;;;10.98;7.03;;;;;;;;;;4969617;28;20057;-82
2022/11/04 15:36:23;;;;;;;10.13;7.30;;;;;;;;;;4973119;28;20057;-83